Nearby METAR Reports

 

LGTS - THESALONIKI, GR
Distance from station: 85km
: 09/04/2020 17:20


: 15 km/h
: 21°C
: 3°C
: 31%
: 1017 hPa
:
Visibility: greater than 10 km
2020/04/09 14:20 LGTS 091420Z 25008KT CAVOK 21/03 Q1017 NOSIG
LGAV - ATHENS, GR
Distance from station: 546km
: 09/04/2020 17:20


: 43 km/h
: 17°C
: -3°C
: 25%
: 1017 hPa
:
Visibility: greater than 10 km
2020/04/09 14:20 LGAV 091420Z 03023KT CAVOK 17/M03 Q1017 NOSIG
 
LGKZ - KOZANI, GR
Distance from station: 130km
: 09/04/2020 17:20


: 11 km/h
: 18°C
: -5°C
: 21%
: 1019 hPa
2020/04/09 14:20 LGKZ 091420Z AUTO 17006KT 130V200 //// // ////// 18/M05 Q1019 RE//
LGIO - IOANNINA, GR
Distance from station: 265km
: 09/04/2020 17:20


: 17 km/h
: 20°C
: -2°C
: 23%
: 1017 hPa
2020/04/09 14:20 LGIO 091420Z AUTO 12009KT //// // ////// 20/M02 Q1017 RE//
 
LGKV - KABALA, GR
Distance from station: 220km
: 09/04/2020 17:20


: 9 km/h
: 17°C
: 5°C
: 45%
: 1018 hPa
:
Visibility: greater than 10 km
2020/04/09 14:20 LGKV 091420Z 23005KT CAVOK 17/05 Q1018
LGAL - ALEXANDROUPOLI, GR
Distance from station: 367km
: 09/04/2020 17:20


: 28 km/h
: 19°C
: 4°C
: 37%
: 1017 hPa
:
Visibility: greater than 10 km
2020/04/09 14:20 LGAL 091420Z 05015KT CAVOK 19/04 Q1017
 
LGSA - CHANIA,CRETE, GR
Distance from station: 866km
: 09/04/2020 17:20
Few Clouds
Few Clouds

: 22 km/h
: 14°C
: 6°C
: 59%
: 1016 hPa
Clouds: Few Clouds
Visibility: 10 km
Cloud details: Few Clouds 762 m
2020/04/09 14:20 LGSA 091420Z 29012KT 9999 FEW025 14/06 Q1016
LGIR - HERAKLIO, CRETE, GR
Distance from station: 882km
: 09/04/2020 17:20


: 30 km/h
: 15°C
: 8°C
: 63%
: 1016 hPa
Clouds:
Visibility: 10 km
Cloud details: 610 m
2020/04/09 14:20 LGIR 091420Z 30016KT 9999 BKN020 15/08 Q1016 NOSIG
 
LGRP - RHODES, GR
Distance from station: 1.318km
: 09/04/2020 17:20
Few Clouds
Few Clouds

: 31 km/h
: 18°C
: 12°C
: 68%
: 1011 hPa
Clouds: Few Clouds
Visibility: 10 km
Cloud details: Few Clouds 762 m
2020/04/09 14:20 LGRP 091420Z 25017KT 9999 FEW025 18/12 Q1011 NOSIG
LGLR - LARISSA, GR
Distance from station: 182km
: 09/04/2020 16:50


: 11 km/h
: 19°C
: 2°C
: 32%
: 1019 hPa
:
Visibility: greater than 10 km
2020/04/09 13:50 LGLR 091350Z 10006KT CAVOK 19/02 Q1019 BLU